Delta Virtual Airport Information Service

Riverside March Air Reserve Base

ICAO: KRIV Country: United States
Latitude: 33.8807 Longitude: -117.259
Latest Arrival : (-) Latest Departure : (-)


WX CaptureLIVE
Data provided by noaa.gov | Fetched at 01:23:41

METAR : KRIV 060558Z AUTO 28003KT 10SM CLR 22/10 A2990 RMK AO2 SLP110 T02220097 10357 20217 51008

TAF : KRIV 060400Z 0604/0710 29006KT 9999 SKC QNH2985INS BECMG 0619/0620 31012KT 9999 SKC 510009 QNH2980INS TEMPO 0620/0702 31012G18KT BECMG 0702/0703 30006KT 9999 SKC QNH2983INS TX37/0622Z TN14/0613Z


Runway Data for KRIV
Data provided by openaviationdata.com

Runway ID Mag Var Hdg Length Elevation Surface ILS Freq ILS Id ILS Slope
12 14 121° 3010 ft 1535 ft Asphalt -- -- --
14 14 135° 13315 ft 1535 ft Concrete -- -- --
30 14 301° 3010 ft 1535 ft Asphalt -- -- --
32 14 315° 13315 ft 1535 ft Concrete 110.1 IRIV 3

Riverside March Air Reserve Base, United States
Use only for reference purposes



Not for navigational purposes.